Time;durP1;ratioP1;P1;durP2;ratioP2;P2;SDS_P1;SDS_P2;PMS_P1;PMS_P2;Temp;Humidity;BMP_temperature;BMP_pressure;BME280_temperature;BME280_humidity;BME280_pressure;Samples;Min_cycle;Max_cycle;Signal;HPM_P1;HPM_P2
2022/07/13 00:01:52;;;;;;;8.77;6.15;;;20.40;99.90;;;;;;6182069;23;20245;-77
2022/07/13 00:04:18;;;;;;;8.20;6.72;;;20.40;99.90;;;;;;6182392;23;20017;-76
2022/07/13 00:06:44;;;;;;;8.07;7.28;;;20.40;99.90;;;;;;6181997;23;20114;-77
2022/07/13 00:09:10;;;;;;;9.05;7.15;;;20.40;99.90;;;;;;6206971;23;20023;-76
2022/07/13 00:11:35;;;;;;;8.77;7.40;;;20.40;99.90;;;;;;6182118;23;20022;-77
2022/07/13 00:14:01;;;;;;;11.20;7.50;;;20.50;99.90;;;;;;6180734;23;20458;-77
2022/07/13 00:16:27;;;;;;;9.02;8.13;;;20.50;99.90;;;;;;6181358;23;20345;-77
2022/07/13 00:18:53;;;;;;;7.35;6.65;;;20.50;99.90;;;;;;6156988;23;20422;-76
2022/07/13 00:21:19;;;;;;;7.95;7.25;;;20.50;99.90;;;;;;6182584;23;20063;-82
2022/07/13 00:23:44;;;;;;;8.98;6.60;;;20.50;99.90;;;;;;6186760;23;20023;-82
2022/07/13 00:26:11;;;;;;;7.70;6.90;;;20.50;99.90;;;;;;6187674;23;20523;-82
2022/07/13 00:28:36;;;;;;;8.32;6.68;;;20.40;99.90;;;;;;6187268;23;20020;-82
2022/07/13 00:31:02;;;;;;;7.63;6.93;;;20.40;99.90;;;;;;6212460;23;20031;-82
2022/07/13 00:33:28;;;;;;;8.25;7.03;;;20.40;99.90;;;;;;6162267;23;20349;-82
2022/07/13 00:35:54;;;;;;;8.23;7.15;;;20.40;99.90;;;;;;6162083;23;20019;-82
2022/07/13 00:38:20;;;;;;;6.90;6.20;;;20.40;99.90;;;;;;6163008;23;20016;-82
2022/07/13 00:40:46;;;;;;;8.93;7.90;;;20.40;99.90;;;;;;6161784;23;20069;-82
2022/07/13 00:43:14;;;;;;;8.20;6.70;;;20.40;99.90;;;;;;6186010;23;20055;-82
2022/07/13 00:45:40;;;;;;;7.78;6.70;;;20.40;99.90;;;;;;6185995;23;20155;-82
2022/07/13 00:48:06;;;;;;;8.27;6.95;;;20.40;99.90;;;;;;6212061;23;20061;-82
2022/07/13 00:50:32;;;;;;;7.70;6.95;;;20.40;99.90;;;;;;6186247;23;20027;-82
2022/07/13 00:53:01;;;;;;;9.35;6.80;;;20.40;99.90;;;;;;6211139;23;20047;-82
2022/07/13 00:55:28;;;;;;;8.53;6.80;;;20.30;99.90;;;;;;6211251;23;20023;-83
2022/07/13 00:57:54;;;;;;;7.45;6.75;;;20.40;99.90;;;;;;6212601;23;20297;-82
2022/07/13 01:00:20;;;;;;;9.02;7.78;;;20.30;99.90;;;;;;6162568;23;20059;-82
2022/07/13 01:02:46;;;;;;;7.18;6.47;;;20.30;99.90;;;;;;6212611;23;20028;-82
2022/07/13 01:05:13;;;;;;;8.02;6.97;;;20.30;99.90;;;;;;6184813;23;20085;-82
2022/07/13 01:07:40;;;;;;;9.48;7.80;;;20.30;99.90;;;;;;6210134;23;20098;-82
2022/07/13 01:10:09;;;;;;;7.80;7.10;;;20.30;99.90;;;;;;6211595;23;20092;-82
2022/07/13 01:12:36;;;;;;;9.70;7.50;;;20.30;99.90;;;;;;6185521;23;20378;-77
2022/07/13 01:15:06;;;;;;;9.13;7.80;;;20.30;99.90;;;;;;6211398;23;20023;-77
2022/07/13 01:17:33;;;;;;;;;;;20.30;99.90;;;;;;6213040;23;20020;-77
2022/07/13 01:20:00;;;;;;;8.98;6.90;;;20.20;99.90;;;;;;6210961;23;19964;-78
2022/07/13 01:22:35;;;;;;;8.95;8.02;;;20.10;99.90;;;;;;6181301;23;20017;-78
2022/07/13 01:25:03;;;;;;;9.90;8.02;;;20.10;99.90;;;;;;6206839;23;20056;-77
2022/07/13 01:27:31;;;;;;;9.20;8.38;;;20.10;99.90;;;;;;6206869;23;20012;-77
2022/07/13 01:29:57;;;;;;;8.50;7.63;;;20.10;99.90;;;;;;6184508;23;20064;-77
2022/07/13 01:32:25;;;;;;;9.70;8.73;;;20.20;99.90;;;;;;6156413;23;20052;-78
2022/07/13 01:34:51;;;;;;;9.38;8.15;;;20.20;99.90;;;;;;6180562;23;20353;-82
2022/07/13 01:37:18;;;;;;;9.88;8.98;;;20.20;99.90;;;;;;6181675;23;20349;-82
2022/07/13 01:39:45;;;;;;;9.52;8.52;;;20.20;99.90;;;;;;6205773;23;20020;-82
2022/07/13 01:42:13;;;;;;;10.23;8.75;;;20.30;99.90;;;;;;6181124;23;20024;-82
2022/07/13 01:44:39;;;;;;;9.45;8.55;;;20.30;99.90;;;;;;6205652;23;20091;-82
2022/07/13 01:47:08;;;;;;;9.65;8.75;;;20.30;99.90;;;;;;6155910;23;20079;-82
2022/07/13 01:49:35;;;;;;;10.30;9.23;;;20.30;99.90;;;;;;6205364;23;20016;-83
2022/07/13 01:52:06;;;;;;;9.20;8.30;;;20.30;99.90;;;;;;6177407;23;20074;-84
2022/07/13 01:54:32;;;;;;;11.75;9.20;;;20.30;99.90;;;;;;6148882;23;20440;-82
2022/07/13 01:56:58;;;;;;;9.63;8.73;;;20.30;99.90;;;;;;6201630;23;20017;-82
2022/07/13 01:59:26;;;;;;;7.53;6.82;;;20.30;99.90;;;;;;6176937;23;20044;-83
2022/07/13 02:01:53;;;;;;;10.35;7.95;;;20.30;99.90;;;;;;6175965;23;20056;-82
2022/07/13 02:04:19;;;;;;;8.35;7.60;;;20.30;99.90;;;;;;6170374;23;20471;-83
2022/07/13 02:06:45;;;;;;;8.85;7.95;;;20.30;99.90;;;;;;6176288;23;20017;-82
2022/07/13 02:09:10;;;;;;;8.93;7.45;;;20.30;99.90;;;;;;6180872;23;20013;-82
2022/07/13 02:11:41;;;;;;;9.85;7.93;;;20.20;99.90;;;;;;6207836;23;20345;-77
2022/07/13 02:14:08;;;;;;;9.60;7.55;;;20.30;99.90;;;;;;6133762;23;20020;-78
2022/07/13 02:16:33;;;;;;;9.88;8.13;;;20.20;99.90;;;;;;6181578;23;20099;-77
2022/07/13 02:18:59;;;;;;;9.55;7.72;;;20.30;99.90;;;;;;6206400;23;20074;-77
2022/07/13 02:21:25;;;;;;;9.77;8.35;;;20.30;99.90;;;;;;6181919;23;20039;-78
2022/07/13 02:23:51;;;;;;;8.63;7.82;;;20.30;99.90;;;;;;6181087;23;20342;-77
2022/07/13 02:26:17;;;;;;;10.18;8.00;;;20.20;99.90;;;;;;6206883;23;20021;-77
2022/07/13 02:28:43;;;;;;;9.75;8.75;;;20.30;99.90;;;;;;6180172;23;20024;-77
2022/07/13 02:31:08;;;;;;;9.30;8.40;;;20.30;99.90;;;;;;6156413;23;20052;-82
2022/07/13 02:33:34;;;;;;;9.82;8.93;;;20.30;99.90;;;;;;6180132;23;20016;-82
2022/07/13 02:36:00;;;;;;;9.30;8.38;;;20.30;99.90;;;;;;6154467;23;20104;-82
2022/07/13 02:38:27;;;;;;;10.27;8.40;;;20.30;99.90;;;;;;6205579;23;20024;-82
2022/07/13 02:40:53;;;;;;;9.70;8.75;;;20.30;99.90;;;;;;6179852;23;20067;-82
2022/07/13 02:43:19;;;;;;;9.00;8.10;;;20.30;99.90;;;;;;6155489;23;20024;-82
2022/07/13 02:45:44;;;;;;;16.83;8.60;;;20.30;99.90;;;;;;6179559;23;20103;-82
2022/07/13 02:48:10;;;;;;;9.05;8.02;;;20.30;99.90;;;;;;6154547;23;20012;-82
2022/07/13 02:50:36;;;;;;;9.60;8.70;;;20.30;99.90;;;;;;6175876;23;20036;-82
2022/07/13 02:53:02;;;;;;;8.75;7.90;;;20.20;99.90;;;;;;6155148;23;20025;-82
2022/07/13 02:55:28;;;;;;;10.30;8.80;;;20.20;99.90;;;;;;6179043;23;20066;-83
2022/07/13 02:57:53;;;;;;;10.60;9.27;;;20.30;99.90;;;;;;6179933;23;20016;-82
2022/07/13 03:00:19;;;;;;;8.15;7.35;;;20.20;99.90;;;;;;6180892;23;20319;-82
2022/07/13 03:02:45;;;;;;;8.98;8.07;;;20.20;99.90;;;;;;6156386;23;20012;-82
2022/07/13 03:05:11;;;;;;;8.82;7.60;;;20.20;99.90;;;;;;6179486;23;20349;-82
2022/07/13 03:07:37;;;;;;;9.13;7.97;;;20.20;99.90;;;;;;6180175;23;20056;-82
2022/07/13 03:10:02;;;;;;;10.93;9.38;;;20.10;99.90;;;;;;6179785;23;20024;-82
2022/07/13 03:12:28;;;;;;;15.00;9.63;;;20.20;99.90;;;;;;6206265;23;20027;-82
2022/07/13 03:14:54;;;;;;;9.63;8.60;;;20.20;99.90;;;;;;6180134;23;20385;-82
2022/07/13 03:17:20;;;;;;;10.50;8.18;;;20.20;99.90;;;;;;6155126;23;20051;-82
2022/07/13 03:19:45;;;;;;;8.95;8.15;;;20.10;99.90;;;;;;6179936;23;20016;-82
2022/07/13 03:22:11;;;;;;;8.52;7.63;;;20.10;99.90;;;;;;6182891;23;20091;-82
2022/07/13 03:24:38;;;;;;;9.27;8.38;;;20.10;99.90;;;;;;6184776;23;20027;-82
2022/07/13 03:27:03;;;;;;;10.73;8.23;;;20.10;99.90;;;;;;6159560;23;20336;-77
2022/07/13 03:29:29;;;;;;;8.73;7.93;;;20.10;99.90;;;;;;6184343;23;20023;-77
2022/07/13 03:31:55;;;;;;;9.23;6.78;;;20.10;99.90;;;;;;6209327;23;20016;-77
2022/07/13 03:34:21;;;;;;;7.72;7.03;;;20.10;99.90;;;;;;6183573;23;20047;-77
2022/07/13 03:36:50;;;;;;;8.02;7.22;;;20.10;99.90;;;;;;6184987;23;20085;-78
2022/07/13 03:39:16;;;;;;;8.15;7.15;;;20.10;99.90;;;;;;6184589;23;20066;-77
2022/07/13 03:41:42;;;;;;;8.30;7.25;;;20.10;99.90;;;;;;6185188;23;20313;-78
2022/07/13 03:44:08;;;;;;;8.93;8.02;;;20.10;99.90;;;;;;6184355;23;20016;-77
2022/07/13 03:46:34;;;;;;;8.30;7.20;;;20.10;99.90;;;;;;6161357;23;20024;-75
2022/07/13 03:48:59;;;;;;;8.35;6.75;;;20.00;99.90;;;;;;6160521;23;20069;-77
2022/07/13 03:51:25;;;;;;;9.35;6.90;;;20.00;99.90;;;;;;6185967;23;20016;-77
2022/07/13 03:53:51;;;;;;;9.98;7.15;;;20.10;99.90;;;;;;6185061;23;20022;-77
2022/07/13 03:56:17;;;;;;;8.05;7.25;;;20.10;99.90;;;;;;6160229;23;20052;-77
2022/07/13 03:58:43;;;;;;;8.25;6.78;;;20.10;99.90;;;;;;6185378;23;20079;-77
2022/07/13 04:01:08;;;;;;;9.13;7.28;;;20.10;99.90;;;;;;6183784;23;20705;-78
2022/07/13 04:03:34;;;;;;;7.80;6.70;;;20.10;99.90;;;;;;6182720;23;20016;-78
2022/07/13 04:06:00;;;;;;;8.48;7.20;;;20.10;99.90;;;;;;6159108;23;20012;-77
2022/07/13 04:08:26;;;;;;;7.32;6.45;;;20.10;99.90;;;;;;6159350;23;20441;-77
2022/07/13 04:10:55;;;;;;;7.72;6.60;;;20.10;99.90;;;;;;6184909;23;20027;-76
2022/07/13 04:13:20;;;;;;;9.35;7.20;;;20.10;99.90;;;;;;6185092;23;20023;-77
2022/07/13 04:15:46;;;;;;;7.88;6.80;;;20.20;99.90;;;;;;6159210;23;20016;-77
2022/07/13 04:18:12;;;;;;;8.32;6.57;;;20.20;99.90;;;;;;6185589;23;20393;-77
2022/07/13 04:20:38;;;;;;;7.95;6.60;;;20.20;99.90;;;;;;6182457;23;20020;-78
2022/07/13 04:23:04;;;;;;;7.13;6.28;;;20.20;99.90;;;;;;6155888;23;20071;-77
2022/07/13 04:25:29;;;;;;;8.73;7.18;;;20.20;99.90;;;;;;6154009;23;20013;-81
2022/07/13 04:27:55;;;;;;;8.90;6.10;;;20.20;99.90;;;;;;6177933;23;20067;-82
2022/07/13 04:30:21;;;;;;;7.53;6.57;;;20.20;99.90;;;;;;6203317;23;20027;-82
2022/07/13 04:32:47;;;;;;;8.52;7.07;;;20.20;99.90;;;;;;6204147;23;20047;-82
2022/07/13 04:35:12;;;;;;;9.63;7.25;;;20.20;99.90;;;;;;6203039;23;20291;-82
2022/07/13 04:37:38;;;;;;;11.30;6.70;;;20.20;99.90;;;;;;6155178;23;20028;-82
2022/07/13 04:40:04;;;;;;;9.98;8.02;;;20.30;99.90;;;;;;6153598;23;20047;-82
2022/07/13 04:42:30;;;;;;;9.88;6.82;;;20.30;99.90;;;;;;6180077;23;20028;-82
2022/07/13 04:44:56;;;;;;;10.35;6.90;;;20.30;99.90;;;;;;6179044;23;20031;-82
2022/07/13 04:47:23;;;;;;;8.55;6.63;;;20.30;99.90;;;;;;6179080;23;20476;-82
2022/07/13 04:49:49;;;;;;;7.72;6.95;;;20.30;99.90;;;;;;6153084;23;20055;-82
2022/07/13 04:52:14;;;;;;;8.93;7.88;;;20.30;99.90;;;;;;6178680;23;20024;-77
2022/07/13 04:54:43;;;;;;;8.95;7.53;;;20.30;99.90;;;;;;6178937;23;20017;-77
2022/07/13 04:57:09;;;;;;;9.38;7.57;;;20.30;99.90;;;;;;6153549;23;20063;-77
2022/07/13 04:59:34;;;;;;;8.25;6.97;;;20.30;99.90;;;;;;6179233;23;20025;-77
2022/07/13 05:02:00;;;;;;;7.57;6.78;;;20.30;99.90;;;;;;6177383;23;20020;-77
2022/07/13 05:04:26;;;;;;;6.85;6.15;;;20.30;99.90;;;;;;6178503;23;20027;-82
2022/07/13 05:06:52;;;;;;;7.32;6.63;;;20.30;99.90;;;;;;6153688;23;20350;-82
2022/07/13 05:09:21;;;;;;;7.65;5.80;;;20.30;99.90;;;;;;6155576;23;20024;-82
2022/07/13 05:11:47;;;;;;;6.70;5.47;;;20.30;99.90;;;;;;6202089;23;20086;-81
2022/07/13 05:14:13;;;;;;;8.18;6.55;;;20.30;99.90;;;;;;6177203;23;20017;-81
2022/07/13 05:16:39;;;;;;;8.35;6.05;;;20.30;99.90;;;;;;6153612;23;20037;-82
2022/07/13 05:19:05;;;;;;;6.85;6.10;;;20.30;99.90;;;;;;6200543;23;20024;-81
2022/07/13 05:21:31;;;;;;;7.80;6.50;;;20.40;99.90;;;;;;6201934;23;20023;-82
2022/07/13 05:23:59;;;;;;;7.75;6.22;;;20.40;99.90;;;;;;6175753;23;20508;-82
2022/07/13 05:26:25;;;;;;;12.77;5.97;;;20.40;99.90;;;;;;6173919;23;20024;-82
2022/07/13 05:28:53;;;;;;;9.45;6.38;;;20.40;99.90;;;;;;6152544;23;20078;-82
2022/07/13 05:31:19;;;;;;;6.50;5.90;;;20.50;99.90;;;;;;6201475;23;20024;-82
2022/07/13 05:33:44;;;;;;;6.63;6.00;;;20.50;99.90;;;;;;6175849;23;20392;-82
2022/07/13 05:36:10;;;;;;;7.78;5.93;;;20.60;99.90;;;;;;6150469;23;20059;-82
2022/07/13 05:38:36;;;;;;;7.25;6.32;;;20.60;99.90;;;;;;6176510;23;20021;-82
2022/07/13 05:41:06;;;;;;;7.03;6.20;;;20.70;99.90;;;;;;6176593;23;20528;-82
2022/07/13 05:43:32;;;;;;;9.02;6.32;;;20.70;99.90;;;;;;6176439;23;20032;-82
2022/07/13 05:45:58;;;;;;;9.75;6.40;;;20.80;99.90;;;;;;6176300;23;20567;-82
2022/07/13 05:48:23;;;;;;;7.43;6.70;;;20.80;99.90;;;;;;6151772;23;20028;-82
2022/07/13 05:50:51;;;;;;;8.23;6.30;;;20.90;99.90;;;;;;6151540;23;20143;-82
2022/07/13 05:53:19;;;;;;;8.52;6.07;;;20.90;99.90;;;;;;6149079;23;20021;-82
2022/07/13 05:55:44;;;;;;;7.55;6.47;;;21.00;99.90;;;;;;6174600;23;20013;-82
2022/07/13 05:58:10;;;;;;;8.10;6.03;;;21.00;99.90;;;;;;6173968;23;20353;-82
2022/07/13 06:00:36;;;;;;;6.93;5.70;;;21.00;99.90;;;;;;6169817;23;20025;-82
2022/07/13 06:03:08;;;;;;;6.10;5.45;;;21.10;99.90;;;;;;6174493;23;20021;-82
2022/07/13 06:05:36;;;;;;;5.63;5.13;;;21.20;99.90;;;;;;6176897;23;20397;-82
2022/07/13 06:08:02;;;;;;;6.55;5.18;;;21.20;99.90;;;;;;6176151;23;20024;-82
2022/07/13 06:10:28;;;;;;;6.30;5.15;;;21.30;99.90;;;;;;6176418;23;20070;-83
2022/07/13 06:12:54;;;;;;;8.05;5.47;;;21.40;99.90;;;;;;6199718;23;20019;-82
2022/07/13 06:15:20;;;;;;;6.00;5.10;;;21.40;99.90;;;;;;6146849;23;20020;-82
2022/07/13 06:17:46;;;;;;;6.88;5.07;;;21.50;99.90;;;;;;6154886;23;20028;-82
2022/07/13 06:20:12;;;;;;;7.53;5.50;;;21.60;99.90;;;;;;6153582;23;20016;-82
2022/07/13 06:22:37;;;;;;;6.10;5.00;;;21.60;99.90;;;;;;6152237;23;20354;-83
2022/07/13 06:25:04;;;;;;;5.32;4.75;;;21.60;99.90;;;;;;6152993;23;20096;-84
2022/07/13 06:27:32;;;;;;;5.28;4.72;;;21.70;99.90;;;;;;6202103;23;20025;-84
2022/07/13 06:30:01;;;;;;;7.28;5.47;;;21.70;99.90;;;;;;6176534;23;20024;-82
2022/07/13 06:32:27;;;;;;;7.82;5.78;;;21.80;99.90;;;;;;6177516;23;20076;-84
2022/07/13 06:34:54;;;;;;;6.63;5.93;;;21.90;99.90;;;;;;6153466;23;20418;-84
2022/07/13 06:37:19;;;;;;;6.22;5.63;;;21.90;99.90;;;;;;6153120;23;20017;-82
2022/07/13 06:39:45;;;;;;;6.55;5.25;;;21.90;99.90;;;;;;6178684;23;20479;-83
2022/07/13 06:42:14;;;;;;;7.38;5.60;;;22.00;99.90;;;;;;6153468;23;20102;-83
2022/07/13 06:44:40;;;;;;;9.20;6.32;;;22.10;99.90;;;;;;6178417;23;20023;-83
2022/07/13 06:47:06;;;;;;;8.85;6.70;;;22.20;99.90;;;;;;6177861;23;20096;-83
2022/07/13 06:49:32;;;;;;;10.25;5.90;;;22.30;99.90;;;;;;6178654;23;20099;-83
2022/07/13 06:51:58;;;;;;;8.02;5.50;;;22.40;99.90;;;;;;6180477;23;20500;-83
2022/07/13 06:54:24;;;;;;;9.40;6.70;;;22.60;99.90;;;;;;6177664;23;20021;-83
2022/07/13 06:56:59;;;;;;;7.95;7.15;;;22.60;99.90;;;;;;6205096;23;20024;-83
2022/07/13 06:59:24;;;;;;;8.15;7.32;;;22.70;99.90;;;;;;6178833;23;20023;-77
2022/07/13 07:01:53;;;;;;;13.45;8.70;;;22.80;99.90;;;;;;6181563;23;20370;-78
2022/07/13 07:04:19;;;;;;;10.03;8.50;;;22.90;99.90;;;;;;6179889;23;20076;-79
2022/07/13 07:06:45;;;;;;;9.75;7.93;;;23.00;99.90;;;;;;6180209;23;20287;-78
2022/07/13 07:09:11;;;;;;;10.40;7.20;;;23.10;99.90;;;;;;6181828;23;20114;-84
2022/07/13 07:11:37;;;;;;;9.93;8.27;;;23.20;99.90;;;;;;6182056;23;20024;-85
2022/07/13 07:14:03;;;;;;;11.05;8.25;;;23.20;99.90;;;;;;6153732;23;20031;-84
2022/07/13 07:16:28;;;;;;;12.43;8.52;;;23.10;99.90;;;;;;6154292;23;20071;-84
2022/07/13 07:18:54;;;;;;;9.70;7.07;;;23.00;99.90;;;;;;6180060;23;20075;-85
2022/07/13 07:21:20;;;;;;;9.68;7.18;;;23.00;99.90;;;;;;6204421;23;20342;-84
2022/07/13 07:23:47;;;;;;;10.18;7.57;;;22.90;99.90;;;;;;6206756;23;20450;-85
2022/07/13 07:26:13;;;;;;;8.25;7.00;;;22.80;99.90;;;;;;6181387;23;20032;-84
2022/07/13 07:28:39;;;;;;;7.93;7.10;;;22.80;99.90;;;;;;6156168;23;20016;-84
2022/07/13 07:31:05;;;;;;;9.57;7.40;;;22.70;99.90;;;;;;6179711;23;20353;-85
2022/07/13 07:33:31;;;;;;;9.32;6.97;;;22.80;99.90;;;;;;6179900;23;20016;-84
2022/07/13 07:35:57;;;;;;;8.70;7.32;;;22.90;99.90;;;;;;6155850;23;20020;-84
2022/07/13 07:38:26;;;;;;;8.77;7.03;;;22.90;99.90;;;;;;6180439;23;20056;-84
2022/07/13 07:40:51;;;;;;;8.30;6.93;;;23.10;99.90;;;;;;6156186;23;20074;-84
2022/07/13 07:43:20;;;;;;;8.85;6.57;;;23.20;99.90;;;;;;6156756;23;20020;-85
2022/07/13 07:45:46;;;;;;;13.45;8.73;;;23.30;99.90;;;;;;6203610;23;20024;-84
2022/07/13 07:48:12;;;;;;;9.45;8.00;;;23.50;99.90;;;;;;6181820;23;20461;-84
2022/07/13 07:50:37;;;;;;;9.07;6.47;;;23.50;99.90;;;;;;6155624;23;20520;-84
2022/07/13 07:53:03;;;;;;;9.35;6.90;;;23.60;99.90;;;;;;6156454;23;20025;-84
2022/07/13 07:55:29;;;;;;;8.82;7.25;;;23.60;99.90;;;;;;6180271;23;20012;-84
2022/07/13 07:57:55;;;;;;;7.85;6.57;;;23.60;99.90;;;;;;6181209;23;20016;-84
2022/07/13 08:00:21;;;;;;;9.70;7.47;;;23.70;99.90;;;;;;6179554;23;20751;-84
2022/07/13 08:02:47;;;;;;;8.55;7.65;;;23.90;99.90;;;;;;6181602;23;20020;-84
2022/07/13 08:05:14;;;;;;;9.73;8.35;;;24.10;99.90;;;;;;6154968;23;20031;-84
2022/07/13 08:07:44;;;;;;;8.20;7.10;;;24.20;99.90;;;;;;6181952;23;20024;-86
2022/07/13 08:10:14;;;;;;;10.77;7.78;;;24.30;99.90;;;;;;6182732;23;20020;-84
2022/07/13 08:12:40;;;;;;;;;;;24.40;99.90;;;;;;6208175;23;20092;-84
2022/07/13 08:15:07;;;;;;;9.25;7.88;;;24.50;99.90;;;;;;6206926;23;19927;-80
2022/07/13 08:17:36;;;;;;;10.02;6.75;;;24.70;99.90;;;;;;6183729;23;20021;-83
2022/07/13 08:20:03;;;;;;;7.45;6.65;;;24.90;99.90;;;;;;6206587;23;20350;-82
2022/07/13 08:22:29;;;;;;;8.15;6.47;;;25.00;99.90;;;;;;6184866;23;20020;-80
2022/07/13 08:24:54;;;;;;;8.60;7.22;;;25.20;99.90;;;;;;6162147;23;20137;-81
2022/07/13 08:27:20;;;;;;;8.20;7.28;;;25.30;99.90;;;;;;6187185;23;20024;-81
2022/07/13 08:29:46;;;;;;;11.13;7.03;;;25.40;99.90;;;;;;6187305;23;20442;-81
2022/07/13 08:32:12;;;;;;;16.15;8.60;;;25.50;99.90;;;;;;6137011;23;20508;-81
2022/07/13 08:40:10;;;;;;;9.30;6.63;;;25.80;99.90;;;;;;6190165;23;20668;-80
2022/07/13 08:42:38;;;;;;;8.13;6.30;;;25.90;99.90;;;;;;6210984;23;20345;-78
2022/07/13 08:45:04;;;;;;;12.23;7.63;;;26.00;99.90;;;;;;6186269;23;20020;-78
2022/07/13 08:47:31;;;;;;;9.57;6.97;;;26.10;99.90;;;;;;6211535;23;20109;-77
2022/07/13 08:50:08;;;;;;;7.93;6.72;;;26.20;99.90;;;;;;6161126;23;20031;-78
2022/07/13 08:52:35;;;;;;;9.50;6.40;;;26.30;99.90;;;;;;6186773;23;20020;-78
2022/07/13 08:55:03;;;;;;;8.40;6.03;;;26.40;99.90;;;;;;6161065;23;20020;-78
2022/07/13 08:57:30;;;;;;;9.20;5.80;;;26.60;99.90;;;;;;6161927;23;20023;-78
2022/07/13 08:59:59;;;;;;;8.68;5.28;;;26.70;99.90;;;;;;6161845;23;20295;-78
2022/07/13 09:02:24;;;;;;;6.53;5.47;;;26.70;99.90;;;;;;6187011;23;20016;-77
2022/07/13 09:04:50;;;;;;;7.50;5.10;;;26.70;99.90;;;;;;6211389;23;20099;-78
2022/07/13 09:07:16;;;;;;;8.05;5.30;;;26.80;99.90;;;;;;6162348;23;20066;-78
2022/07/13 09:09:42;;;;;;;6.80;5.78;;;26.80;99.90;;;;;;6187314;23;20020;-80
2022/07/13 09:12:16;;;;;;;6.90;4.35;;;26.90;99.90;;;;;;6210500;23;20408;-81
2022/07/13 09:14:44;;;;;;;6.38;4.50;;;26.90;99.90;;;;;;6186352;23;20047;-81
2022/07/13 09:17:29;;;;;;;6.32;3.85;;;27.00;99.90;;;;;;6186149;23;20023;-82
2022/07/13 09:19:55;;;;;;;5.72;4.50;;;27.10;99.90;;;;;;6210107;23;20073;-81
2022/07/13 09:22:21;;;;;;;6.63;4.57;;;27.20;99.90;;;;;;6205498;23;20020;-81
2022/07/13 09:24:48;;;;;;;8.23;3.90;;;27.20;99.90;;;;;;6205417;23;20031;-82
2022/07/13 09:27:15;;;;;;;5.95;3.90;;;27.30;99.90;;;;;;6180515;23;20016;-81
2022/07/13 09:29:42;;;;;;;5.50;4.00;;;27.40;99.90;;;;;;6204166;23;20075;-80
2022/07/13 09:32:11;;;;;;;5.65;4.00;;;27.50;99.90;;;;;;6180134;23;20020;-76
2022/07/13 09:35:06;;;;;;;6.07;4.10;;;27.50;99.90;;;;;;6180387;23;20115;-76
2022/07/13 09:37:34;;;;;;;6.40;3.65;;;27.60;99.90;;;;;;6187022;23;20598;-78
2022/07/13 09:40:07;;;;;;;7.53;4.20;;;27.60;99.90;;;;;;6205069;23;20024;-78
2022/07/13 09:42:39;;;;;;;4.85;3.63;;;27.60;99.90;;;;;;6206420;23;20123;-77
2022/07/13 09:48:00;;;;;;;5.60;3.38;;;27.80;99.90;;;;;;6204795;23;20402;-76
2022/07/13 09:50:39;;;;;;;4.80;3.40;;;27.80;99.90;;;;;;6180971;23;20023;-78
2022/07/13 09:53:28;;;;;;;6.63;4.07;;;27.90;97.70;;;;;;6181299;23;20021;-78
2022/07/13 09:55:57;;;;;;;5.80;2.88;;;27.90;99.90;;;;;;6204009;23;20110;-83
2022/07/13 09:58:30;;;;;;;5.78;3.13;;;28.00;99.90;;;;;;6180402;23;20095;-81
2022/07/13 10:00:58;;;;;;;4.90;3.15;;;28.00;97.50;;;;;;6180747;23;20484;-82
2022/07/13 10:03:25;;;;;;;6.20;2.85;;;28.10;99.90;;;;;;6156788;23;20032;-81
2022/07/13 10:05:56;;;;;;;4.55;2.50;;;28.20;98.80;;;;;;6205165;23;20021;-79
2022/07/13 10:08:25;;;;;;;5.70;2.83;;;28.30;96.00;;;;;;6205733;23;20340;-81
2022/07/13 10:10:52;;;;;;;6.47;2.63;;;28.20;95.40;;;;;;6178923;23;20027;-81
2022/07/13 10:13:20;;;;;;;5.50;3.00;;;28.30;96.00;;;;;;6181310;23;20024;-81
2022/07/13 10:15:48;;;;;;;3.65;2.70;;;28.30;91.40;;;;;;6181007;23;20450;-81
2022/07/13 10:18:41;;;;;;;5.32;2.88;;;28.30;90.90;;;;;;6181504;23;20017;-82
2022/07/13 10:21:19;;;;;;;5.03;2.45;;;28.20;94.70;;;;;;6177334;23;20472;-80
2022/07/13 10:23:45;;;;;;;3.33;2.45;;;28.30;94.60;;;;;;6204588;23;20083;-81
2022/07/13 10:26:37;;;;;;;4.68;2.80;;;28.40;94.10;;;;;;6182566;23;20016;-81
2022/07/13 10:29:10;;;;;;;5.45;2.25;;;28.60;94.30;;;;;;6203263;23;20052;-81
2022/07/13 10:31:38;;;;;;;5.35;2.45;;;28.60;94.10;;;;;;6182969;23;20424;-81
2022/07/13 10:34:05;;;;;;;5.80;2.10;;;28.70;87.50;;;;;;6207865;23;20327;-81
2022/07/13 10:36:50;;;;;;;5.57;1.95;;;28.60;90.00;;;;;;6181958;23;20434;-81
2022/07/13 10:39:18;;;;;;;7.13;2.47;;;28.60;90.70;;;;;;6182081;23;20031;-81
2022/07/13 10:41:59;;;;;;;4.15;2.47;;;28.60;91.90;;;;;;6207128;23;20476;-80
2022/07/13 10:44:35;;;;;;;4.25;2.40;;;28.60;91.50;;;;;;6205922;23;20383;-81
2022/07/13 10:47:15;;;;;;;5.30;2.63;;;28.70;91.60;;;;;;6182275;23;20021;-80
2022/07/13 10:49:48;;;;;;;4.05;2.17;;;28.70;87.60;;;;;;6180579;23;20650;-80
2022/07/13 10:52:21;;;;;;;4.32;2.10;;;28.80;90.60;;;;;;6181449;23;20021;-80
2022/07/13 10:55:11;;;;;;;4.50;2.10;;;28.90;87.60;;;;;;6205032;23;20017;-81
2022/07/13 10:57:43;;;;;;;4.18;2.05;;;29.00;83.90;;;;;;6181146;23;20496;-81
2022/07/13 11:02:48;;;;;;;5.00;2.10;;;29.10;78.50;;;;;;6205003;23;20214;-76
2022/07/13 11:05:17;;;;;;;5.65;2.25;;;29.00;77.50;;;;;;6204467;23;20139;-77
2022/07/13 11:07:45;;;;;;;6.10;2.13;;;28.90;79.30;;;;;;6207013;23;20311;-76
2022/07/13 11:10:26;;;;;;;4.72;2.10;;;28.80;82.90;;;;;;6206405;23;20528;-75
2022/07/13 11:13:14;;;;;;;5.97;2.28;;;28.90;76.30;;;;;;6183156;23;20021;-77
2022/07/13 11:15:56;;;;;;;4.00;2.20;;;29.00;80.00;;;;;;6180932;23;20059;-78
2022/07/13 11:18:22;;;;;;;4.63;2.00;;;29.00;81.70;;;;;;6181995;23;20076;-77
2022/07/13 11:21:05;;;;;;;4.68;2.20;;;29.20;86.20;;;;;;6181199;23;20016;-77
2022/07/13 11:26:48;;;;;;;3.10;1.90;;;29.30;78.60;;;;;;6206182;23;20024;-76
2022/07/13 11:29:21;;;;;;;5.88;1.75;;;29.40;74.30;;;;;;6181037;23;20035;-77
2022/07/13 11:31:58;;;;;;;2.90;2.00;;;29.40;78.80;;;;;;6180933;23;20017;-77
2022/07/13 11:34:24;;;;;;;4.05;1.73;;;29.40;77.70;;;;;;6205914;23;20017;-77
2022/07/13 11:36:55;;;;;;;3.42;2.10;;;29.60;74.20;;;;;;6181794;23;20017;-77
2022/07/13 11:39:33;;;;;;;2.80;1.73;;;29.50;70.60;;;;;;6207549;23;20524;-77
2022/07/13 11:42:00;;;;;;;6.57;1.98;;;29.40;74.90;;;;;;6181087;23;20457;-76
2022/07/13 11:44:27;;;;;;;4.72;2.15;;;29.30;74.30;;;;;;6206971;23;20473;-77
2022/07/13 11:46:55;;;;;;;7.80;2.20;;;29.30;71.70;;;;;;6180219;23;20020;-77
2022/07/13 11:49:21;;;;;;;5.65;2.10;;;29.10;76.20;;;;;;6154989;23;20072;-77
2022/07/13 11:51:47;;;;;;;6.85;2.47;;;28.80;74.90;;;;;;6208020;23;20556;-77
2022/07/13 11:54:15;;;;;;;5.97;2.38;;;28.70;80.20;;;;;;6181742;23;20020;-76
2022/07/13 11:56:59;;;;;;;3.88;2.25;;;28.70;75.20;;;;;;6182387;23;20012;-75
2022/07/13 11:59:39;;;;;;;5.35;2.53;;;28.80;74.40;;;;;;6181416;23;20074;-81
2022/07/13 12:02:08;;;;;;;6.18;2.35;;;28.60;70.50;;;;;;6206594;23;20013;-82
2022/07/13 12:04:45;;;;;;;5.55;2.28;;;28.30;70.60;;;;;;6182257;23;20043;-81
2022/07/13 12:07:16;;;;;;;4.50;2.10;;;28.00;74.60;;;;;;6206654;23;20619;-82
2022/07/13 12:10:05;;;;;;;4.57;2.10;;;28.00;75.00;;;;;;6182644;23;20511;-84
2022/07/13 12:12:36;;;;;;;6.03;2.40;;;28.20;77.50;;;;;;6183816;23;20028;-80
2022/07/13 12:15:03;;;;;;;5.10;2.17;;;28.30;75.00;;;;;;6181909;23;20807;-81
2022/07/13 12:17:31;;;;;;;8.07;2.17;;;28.30;72.70;;;;;;6181589;23;20012;-80
2022/07/13 12:20:17;;;;;;;7.20;2.35;;;28.30;71.30;;;;;;6180789;23;20016;-82
2022/07/13 12:22:54;;;;;;;4.25;2.03;;;28.30;77.20;;;;;;6181285;23;20027;-82
2022/07/13 12:25:32;;;;;;;4.90;2.20;;;28.50;76.70;;;;;;6181018;23;20012;-82
2022/07/13 12:27:59;;;;;;;4.10;2.95;;;28.60;78.80;;;;;;6204875;23;20020;-81
2022/07/13 12:30:25;;;;;;;3.70;2.05;;;28.50;76.70;;;;;;6180930;23;20302;-83
2022/07/13 12:33:10;;;;;;;3.92;2.58;;;28.40;77.50;;;;;;6181321;23;20350;-83
2022/07/13 12:35:40;;;;;;;4.22;2.33;;;28.40;76.40;;;;;;6204495;23;20016;-83
2022/07/13 12:38:14;;;;;;;6.63;3.17;;;28.20;75.90;;;;;;6205283;23;20020;-81
2022/07/13 12:40:44;;;;;;;4.32;2.60;;;28.00;76.70;;;;;;6158680;23;20017;-83
2022/07/13 12:43:30;;;;;;;5.30;2.47;;;27.80;79.50;;;;;;6204567;23;20017;-82
2022/07/13 12:46:01;;;;;;;4.85;2.58;;;27.50;83.20;;;;;;6180049;23;20083;-81
2022/07/13 12:48:30;;;;;;;3.60;2.20;;;27.30;84.20;;;;;;6181281;23;20016;-82
2022/07/13 12:51:12;;;;;;;4.55;2.13;;;27.10;84.90;;;;;;6205284;23;20575;-82
2022/07/13 12:53:56;;;;;;;4.30;2.33;;;27.20;90.90;;;;;;6181067;23;20020;-82
2022/07/13 12:56:44;;;;;;;5.60;2.58;;;27.40;89.90;;;;;;6201505;23;20106;-83
2022/07/13 12:59:11;;;;;;;6.22;3.10;;;27.50;89.80;;;;;;6204111;23;20513;-82
2022/07/13 13:01:38;;;;;;;6.03;2.88;;;27.60;90.00;;;;;;6153702;23;20024;-81
2022/07/13 13:04:07;;;;;;;8.57;2.88;;;27.60;91.10;;;;;;6203275;23;20020;-83
2022/07/13 13:06:38;;;;;;;7.55;3.40;;;27.60;92.60;;;;;;6203647;23;20081;-82